createdAt,value
2018-11-28T00:01:29.897Z,31.13
2018-11-28T00:03:58.770Z,29.97
2018-11-28T00:06:27.706Z,30.90
2018-11-28T00:08:56.590Z,25.07
2018-11-28T00:11:27.508Z,30.30
2018-11-28T00:13:57.485Z,31.63
2018-11-28T00:16:26.434Z,29.77
2018-11-28T00:21:55.215Z,29.90
2018-11-28T00:24:24.118Z,32.00
2018-11-28T00:26:53.096Z,28.10
2018-11-28T00:29:22.115Z,31.60
2018-11-28T00:32:07.393Z,31.47
2018-11-28T00:40:31.222Z,27.57
2018-11-28T00:43:00.552Z,32.63
2018-11-28T00:45:32.106Z,31.53
2018-11-28T00:48:04.958Z,30.77
2018-11-28T00:50:39.505Z,34.70
2018-11-28T00:53:12.033Z,31.90
2018-11-28T00:55:41.026Z,30.70
2018-11-28T00:58:09.969Z,34.37
2018-11-28T01:00:46.791Z,32.73
2018-11-28T01:03:15.701Z,31.60
2018-11-28T01:05:44.555Z,32.20
2018-11-28T01:08:13.478Z,30.70
2018-11-28T01:10:47.077Z,34.67
2018-11-28T01:13:21.574Z,34.63
2018-11-28T01:15:57.249Z,33.40
2018-11-28T01:18:26.168Z,33.87
2018-11-28T01:20:55.051Z,32.57
2018-11-28T01:23:23.965Z,32.23
2018-11-28T01:25:52.826Z,32.60
2018-11-28T01:28:21.707Z,33.50
2018-11-28T01:33:56.737Z,33.77
2018-11-28T01:36:25.618Z,36.33
2018-11-28T01:39:08.311Z,34.70
2018-11-28T01:41:47.072Z,32.83
2018-11-28T01:44:16.006Z,32.13
2018-11-28T01:46:44.868Z,32.53
2018-11-28T01:49:19.704Z,30.67
2018-11-28T01:54:43.854Z,33.17
2018-11-28T01:57:16.365Z,33.23
2018-11-28T01:59:50.903Z,33.60
2018-11-28T02:02:21.818Z,29.90
2018-11-28T02:04:50.727Z,36.90
2018-11-28T02:07:19.633Z,34.03
2018-11-28T02:09:50.524Z,38.37
2018-11-28T02:12:23.236Z,34.87
2018-11-28T02:14:52.114Z,36.73
2018-11-28T02:17:20.984Z,34.27
2018-11-28T02:19:49.911Z,37.10
2018-11-28T02:22:22.115Z,34.67
2018-11-28T02:24:51.162Z,33.97
2018-11-28T02:27:20.070Z,34.17
2018-11-28T02:29:48.971Z,34.70
2018-11-28T02:32:18.151Z,34.90
2018-11-28T02:34:51.327Z,37.33
2018-11-28T02:37:22.242Z,34.70
2018-11-28T02:39:51.180Z,32.50
2018-11-28T02:42:20.076Z,34.43
2018-11-28T02:45:11.112Z,33.20
2018-11-28T02:47:40.006Z,33.40
2018-11-28T02:50:22.632Z,33.53
2018-11-28T02:52:51.559Z,35.70
2018-11-28T02:55:20.465Z,35.83
2018-11-28T02:57:50.059Z,35.63
2018-11-28T03:00:22.120Z,37.30
2018-11-28T03:02:51.088Z,35.37
2018-11-28T03:05:20.255Z,37.30
2018-11-28T03:07:49.254Z,34.90
2018-11-28T03:10:19.176Z,35.50
2018-11-28T03:12:48.367Z,34.20
2018-11-28T03:15:28.573Z,36.00
2018-11-28T03:17:57.586Z,35.23
2018-11-28T03:20:39.556Z,34.40
2018-11-28T03:23:12.981Z,38.27
2018-11-28T03:25:41.917Z,35.87
2018-11-28T03:28:10.798Z,37.63
2018-11-28T03:30:46.734Z,36.37
2018-11-28T03:33:23.462Z,37.63
2018-11-28T03:36:05.573Z,35.20
2018-11-28T03:41:28.851Z,35.50
2018-11-28T03:43:57.845Z,37.53
2018-11-28T03:46:26.826Z,37.13
2018-11-28T03:48:55.788Z,34.20
2018-11-28T03:51:26.821Z,34.43
2018-11-28T03:53:55.683Z,35.27
2018-11-28T03:56:24.588Z,35.70
2018-11-28T03:59:00.014Z,38.37
2018-11-28T04:01:28.908Z,36.33
2018-11-28T04:03:57.800Z,34.37
2018-11-28T04:06:28.720Z,36.07
2018-11-28T04:08:57.590Z,37.27
2018-11-28T04:11:26.778Z,36.53
2018-11-28T04:13:55.633Z,38.23
2018-11-28T04:16:24.542Z,35.83
2018-11-28T04:18:53.497Z,33.07
2018-11-28T04:21:22.380Z,35.90
2018-11-28T04:23:51.266Z,32.43
2018-11-28T04:26:22.346Z,35.57
2018-11-28T04:29:05.736Z,31.27
2018-11-28T04:31:35.761Z,34.83
2018-11-28T04:34:06.242Z,36.27
2018-11-28T04:36:38.842Z,36.83
2018-11-28T04:39:08.760Z,36.17
2018-11-28T04:41:43.488Z,35.93
2018-11-28T04:44:31.725Z,35.70
2018-11-28T04:47:14.153Z,39.90
2018-11-28T04:49:42.779Z,34.83
2018-11-28T04:52:20.089Z,38.33
2018-11-28T04:55:03.012Z,34.93
2018-11-28T04:57:55.042Z,34.50
2018-11-28T05:00:27.966Z,36.13
2018-11-28T05:03:10.150Z,39.20
2018-11-28T05:05:40.538Z,35.37
2018-11-28T05:08:20.637Z,38.40
2018-11-28T05:11:02.718Z,35.47
2018-11-28T05:13:54.846Z,37.50
2018-11-28T05:16:30.016Z,33.77
2018-11-28T05:19:06.062Z,38.43
2018-11-28T05:21:40.773Z,35.70
2018-11-28T05:24:09.775Z,37.00
2018-11-28T05:26:43.977Z,34.37
2018-11-28T05:29:20.201Z,38.10
2018-11-28T05:32:05.439Z,34.57
2018-11-28T05:34:41.619Z,35.37
2018-11-28T05:40:08.990Z,36.90
2018-11-28T05:42:46.158Z,38.63
2018-11-28T05:45:33.362Z,38.70
2018-11-28T05:48:15.239Z,41.00
2018-11-28T05:51:03.529Z,37.73
2018-11-28T05:53:32.442Z,40.30
2018-11-28T05:56:01.348Z,38.87
2018-11-28T05:58:30.276Z,35.07
2018-11-28T06:01:21.683Z,38.57
2018-11-28T06:04:04.642Z,41.70
2018-11-28T06:06:40.819Z,42.27
2018-11-28T06:09:10.533Z,37.27
2018-11-28T06:11:41.470Z,41.20
2018-11-28T06:14:12.421Z,41.50
2018-11-28T06:16:41.433Z,40.60
2018-11-28T06:19:20.493Z,37.27
2018-11-28T06:21:57.430Z,41.03
2018-11-28T06:24:26.391Z,38.43
2018-11-28T06:26:56.346Z,39.07
2018-11-28T06:29:28.863Z,38.43
2018-11-28T06:32:03.422Z,34.10
2018-11-28T06:37:27.376Z,38.80
2018-11-28T06:40:00.008Z,39.93
2018-11-28T06:42:30.896Z,38.00
2018-11-28T06:45:00.873Z,39.67
2018-11-28T06:47:37.123Z,37.77
2018-11-28T06:50:11.994Z,36.27
2018-11-28T06:52:46.172Z,39.57
2018-11-28T06:55:16.173Z,37.07
2018-11-28T06:57:45.064Z,38.67
2018-11-28T07:00:15.106Z,37.60
2018-11-28T07:02:44.100Z,37.97
2018-11-28T07:05:13.460Z,36.63
2018-11-28T07:07:42.543Z,36.53
2018-11-28T07:10:17.571Z,39.97
2018-11-28T07:12:52.302Z,38.30
2018-11-28T07:15:32.553Z,39.23
2018-11-28T07:18:12.857Z,38.93
2018-11-28T07:20:42.866Z,40.33
2018-11-28T07:23:11.855Z,38.37
2018-11-28T07:25:40.747Z,35.30
2018-11-28T07:28:09.669Z,36.97
2018-11-28T07:30:39.672Z,39.80
2018-11-28T07:33:12.645Z,40.13
2018-11-28T07:35:47.990Z,39.37
2018-11-28T07:38:35.474Z,34.50
2018-11-28T07:41:10.890Z,36.30
2018-11-28T07:43:50.198Z,37.07
2018-11-28T07:46:25.526Z,36.57
2018-11-28T07:49:05.179Z,36.70
2018-11-28T07:51:38.985Z,34.73
2018-11-28T07:54:31.072Z,35.30
2018-11-28T07:56:59.992Z,37.47
2018-11-28T07:59:29.964Z,38.33
2018-11-28T08:02:12.867Z,42.27
2018-11-28T08:04:58.583Z,40.00
2018-11-28T08:07:32.494Z,37.83
2018-11-28T08:10:24.366Z,34.50
2018-11-28T08:15:34.562Z,37.73
2018-11-28T08:18:05.496Z,41.30
2018-11-28T08:20:38.072Z,40.17
2018-11-28T08:23:06.999Z,39.70
2018-11-28T08:25:42.090Z,38.83
2018-11-28T08:28:36.139Z,35.90
2018-11-28T08:31:04.137Z,37.67
2018-11-28T08:33:34.056Z,39.53
2018-11-28T08:36:03.063Z,38.10
2018-11-28T08:38:37.455Z,35.33
2018-11-28T08:41:06.529Z,36.70
2018-11-28T08:46:47.406Z,37.67
2018-11-28T08:49:21.060Z,37.60
2018-11-28T08:51:57.128Z,35.70
2018-11-28T08:54:48.294Z,37.37
2018-11-28T08:57:18.239Z,34.83
2018-11-28T08:59:53.114Z,37.47
2018-11-28T09:02:24.121Z,38.27
2018-11-28T09:08:05.182Z,34.00
2018-11-28T09:10:39.240Z,36.63
2018-11-28T09:13:10.112Z,37.80
2018-11-28T09:15:40.412Z,40.87
2018-11-28T09:18:17.103Z,37.27
2018-11-28T09:20:59.128Z,34.10
2018-11-28T09:23:28.037Z,40.50
2018-11-28T09:26:00.982Z,37.30
2018-11-28T09:28:30.995Z,35.13
2018-11-28T09:31:08.008Z,43.83
2018-11-28T09:33:37.941Z,38.90
2018-11-28T09:36:12.309Z,38.00
2018-11-28T09:38:41.270Z,35.70
2018-11-28T09:41:10.669Z,32.73
2018-11-28T09:43:49.864Z,35.37
2018-11-28T09:46:19.857Z,36.53
2018-11-28T09:48:48.752Z,38.40
2018-11-28T09:51:17.658Z,36.53
2018-11-28T09:53:46.578Z,36.33
2018-11-28T09:56:15.416Z,36.20
2018-11-28T09:58:44.320Z,35.93
2018-11-28T10:01:17.239Z,38.07
2018-11-28T10:03:52.612Z,37.97
2018-11-28T10:06:21.501Z,37.63
2018-11-28T10:08:50.490Z,37.30
2018-11-28T10:11:38.499Z,35.17
2018-11-28T10:14:07.790Z,37.70
2018-11-28T10:16:37.189Z,36.73
2018-11-28T10:19:09.539Z,35.40
2018-11-28T10:21:46.911Z,33.67
2018-11-28T10:24:16.365Z,34.83
2018-11-28T10:26:45.559Z,35.20
2018-11-28T10:29:14.910Z,35.80
2018-11-28T10:31:43.860Z,35.83
2018-11-28T10:34:13.381Z,35.10
2018-11-28T10:37:00.537Z,35.07
2018-11-28T10:39:30.489Z,33.57
2018-11-28T10:42:24.163Z,34.83
2018-11-28T10:44:57.685Z,35.33
2018-11-28T10:47:47.533Z,32.40
2018-11-28T10:50:17.526Z,33.03
2018-11-28T10:52:51.899Z,32.43
2018-11-28T10:55:21.746Z,37.53
2018-11-28T10:57:50.783Z,30.97
2018-11-28T11:00:33.015Z,32.27
2018-11-28T11:03:07.304Z,32.53
2018-11-28T11:05:47.724Z,34.40
2018-11-28T11:08:21.873Z,35.10
2018-11-28T11:10:56.442Z,34.03
2018-11-28T11:13:30.747Z,28.07
2018-11-28T11:16:00.259Z,34.43
2018-11-28T11:18:29.546Z,32.87
2018-11-28T11:21:05.360Z,30.10
2018-11-28T11:23:51.461Z,28.57
2018-11-28T11:26:20.790Z,30.57
2018-11-28T11:28:50.149Z,33.07
2018-11-28T11:31:19.583Z,29.77
2018-11-28T11:33:48.924Z,29.73
2018-11-28T11:36:18.326Z,29.40
2018-11-28T11:39:01.859Z,33.90
2018-11-28T11:41:31.263Z,32.13
2018-11-28T11:46:56.154Z,31.60
2018-11-28T11:49:29.995Z,29.87
2018-11-28T11:52:21.313Z,33.63
2018-11-28T11:57:49.029Z,28.83
2018-11-28T12:00:25.760Z,31.53
2018-11-28T12:03:11.505Z,32.70
2018-11-28T12:05:57.317Z,36.30
2018-11-28T12:08:40.975Z,30.60
2018-11-28T12:11:27.533Z,27.70
2018-11-28T12:13:56.859Z,26.73
2018-11-28T12:16:25.838Z,27.03
2018-11-28T12:19:01.824Z,28.33
2018-11-28T12:21:31.174Z,28.03
2018-11-28T12:24:00.049Z,30.57
2018-11-28T12:26:46.417Z,28.43
2018-11-28T12:29:36.179Z,26.93
2018-11-28T12:32:07.616Z,26.87
2018-11-28T12:34:40.954Z,31.27
2018-11-28T12:37:10.066Z,28.07
2018-11-28T12:39:40.037Z,29.63
2018-11-28T12:45:11.564Z,27.50
2018-11-28T12:47:52.574Z,28.93
2018-11-28T12:50:28.166Z,27.80
2018-11-28T12:52:59.223Z,27.97
2018-11-28T12:58:27.488Z,26.83
2018-11-28T13:01:19.396Z,26.53
2018-11-28T13:03:50.015Z,27.50
2018-11-28T13:06:22.611Z,24.40
2018-11-28T13:08:53.014Z,27.07
2018-11-28T13:11:22.310Z,28.93
2018-11-28T13:13:51.368Z,28.30
2018-11-28T13:16:25.173Z,31.57
2018-11-28T13:19:05.607Z,25.40
2018-11-28T13:21:38.920Z,27.20
2018-11-28T13:24:11.000Z,28.57
2018-11-28T13:26:43.742Z,26.70
2018-11-28T13:29:24.130Z,24.87
2018-11-28T13:32:05.032Z,26.33
2018-11-28T13:34:33.930Z,26.17
2018-11-28T13:37:02.856Z,27.50
2018-11-28T13:39:36.682Z,25.03
2018-11-28T13:42:09.259Z,26.63
2018-11-28T13:44:45.631Z,25.50
2018-11-28T13:47:14.816Z,27.43
2018-11-28T13:49:49.748Z,29.70
2018-11-28T13:52:20.196Z,25.27
2018-11-28T13:55:37.826Z,24.93
2018-11-28T13:57:21.464Z,23.37
2018-11-28T14:02:49.597Z,23.87
2018-11-28T14:05:31.249Z,29.87
2018-11-28T14:08:00.214Z,28.37
2018-11-28T14:10:31.194Z,25.87
2018-11-28T14:13:00.159Z,23.57
2018-11-28T14:15:29.141Z,24.50
2018-11-28T14:18:01.137Z,24.47
2018-11-28T14:20:30.121Z,23.87
2018-11-28T14:23:12.050Z,26.70
2018-11-28T14:25:40.962Z,22.80
2018-11-28T14:28:10.224Z,23.70
2018-11-28T14:30:46.454Z,22.90
2018-11-28T14:33:23.529Z,23.03
2018-11-28T14:35:56.122Z,24.27
2018-11-28T14:38:28.849Z,26.07
2018-11-28T14:40:57.954Z,22.20
2018-11-28T14:43:27.169Z,23.73
2018-11-28T14:46:08.085Z,25.37
2018-11-28T14:48:41.955Z,24.27
2018-11-28T14:51:10.925Z,24.70
2018-11-28T14:53:48.117Z,21.37
2018-11-28T14:56:19.457Z,20.70
2018-11-28T14:58:52.453Z,23.90
2018-11-28T15:01:23.525Z,22.83
2018-11-28T15:03:55.052Z,24.80
2018-11-28T15:06:31.866Z,21.07
2018-11-28T15:09:07.140Z,23.33
2018-11-28T15:11:39.680Z,21.83
2018-11-28T15:14:08.687Z,21.23
2018-11-28T15:16:50.388Z,19.90
2018-11-28T15:19:30.646Z,23.10
2018-11-28T15:22:07.525Z,19.50
2018-11-28T15:24:37.549Z,20.23
2018-11-28T15:27:08.185Z,20.90
2018-11-28T15:29:39.210Z,22.20
2018-11-28T15:32:10.478Z,19.83
2018-11-28T15:34:49.604Z,23.40
2018-11-28T15:37:29.524Z,22.43
2018-11-28T15:40:05.719Z,23.50
2018-11-28T15:42:40.747Z,23.27
2018-11-28T15:45:16.645Z,21.97
2018-11-28T15:48:02.914Z,29.50
2018-11-28T15:50:38.454Z,25.70
2018-11-28T15:53:07.989Z,30.73
2018-11-28T15:55:37.198Z,24.00
2018-11-28T15:58:06.770Z,27.30
2018-11-28T16:00:41.608Z,25.83
2018-11-28T16:03:24.773Z,25.93
2018-11-28T16:05:55.939Z,29.13
2018-11-28T16:08:37.213Z,27.33
2018-11-28T16:11:13.475Z,25.23
2018-11-28T16:14:01.687Z,27.80
2018-11-28T16:16:36.594Z,27.50
2018-11-28T16:19:19.230Z,26.73
2018-11-28T16:22:04.981Z,27.87
2018-11-28T16:24:50.669Z,27.73
2018-11-28T16:27:21.997Z,27.43
2018-11-28T16:30:03.441Z,31.03
2018-11-28T16:32:44.476Z,31.03
2018-11-28T16:35:17.062Z,30.43
2018-11-28T16:37:48.480Z,29.90
2018-11-28T16:40:17.448Z,30.77
2018-11-28T16:42:47.363Z,32.93
2018-11-28T16:45:18.347Z,28.70
2018-11-28T16:47:48.809Z,28.53
2018-11-28T16:50:18.166Z,31.20
2018-11-28T16:53:04.336Z,30.50
2018-11-28T16:55:33.355Z,32.27
2018-11-28T16:58:02.257Z,33.23
2018-11-28T17:00:39.126Z,32.60
2018-11-28T17:03:26.003Z,35.47
2018-11-28T17:05:56.002Z,33.40
2018-11-28T17:08:31.232Z,32.57
2018-11-28T17:11:22.457Z,37.50
2018-11-28T17:13:51.400Z,36.40
2018-11-28T17:16:27.231Z,36.87
2018-11-28T17:19:02.299Z,36.73
2018-11-28T17:21:38.942Z,35.20
2018-11-28T17:24:11.105Z,37.67
2018-11-28T17:26:41.055Z,34.30
2018-11-28T17:29:12.183Z,36.83
2018-11-28T17:31:45.120Z,37.63
2018-11-28T17:34:14.568Z,33.73
2018-11-28T17:36:45.193Z,39.17
2018-11-28T17:39:15.127Z,35.40
2018-11-28T17:41:51.529Z,36.93
2018-11-28T17:44:21.524Z,37.00
2018-11-28T17:46:52.941Z,37.37
2018-11-28T17:49:28.110Z,33.30
2018-11-28T17:51:59.501Z,31.50
2018-11-28T17:54:32.580Z,31.83
2018-11-28T17:57:01.506Z,29.43
2018-11-28T17:59:31.537Z,34.23
2018-11-28T18:02:02.501Z,32.37
2018-11-28T18:04:32.098Z,33.23
2018-11-28T18:07:03.460Z,31.70
2018-11-28T18:09:36.247Z,33.67
2018-11-28T18:12:06.263Z,30.73
2018-11-28T18:14:45.227Z,30.33
2018-11-28T18:17:15.246Z,29.97
2018-11-28T18:19:44.154Z,32.33
2018-11-28T18:22:37.164Z,32.60
2018-11-28T18:25:11.875Z,31.17
2018-11-28T18:27:42.886Z,33.53
2018-11-28T18:30:16.507Z,31.20
2018-11-28T18:32:57.931Z,32.43
2018-11-28T18:35:45.755Z,32.93
2018-11-28T18:38:19.387Z,31.40
2018-11-28T18:40:50.383Z,33.73
2018-11-28T18:43:24.115Z,30.23
2018-11-28T18:48:59.540Z,30.90
2018-11-28T18:51:30.470Z,32.63
2018-11-28T18:54:03.456Z,27.53
2018-11-28T18:56:33.515Z,28.30
2018-11-28T18:59:04.557Z,29.80
2018-11-28T19:01:34.499Z,27.83
2018-11-28T19:04:04.490Z,29.97
2018-11-28T19:06:34.490Z,29.53
2018-11-28T19:09:04.466Z,26.63
2018-11-28T19:11:34.487Z,27.47
2018-11-28T19:14:12.274Z,25.33
2018-11-28T19:16:39.869Z,25.67
2018-11-28T19:22:07.701Z,23.37
2018-11-28T19:24:37.658Z,23.80
2018-11-28T19:27:06.926Z,25.37
2018-11-28T19:29:54.542Z,24.57
2018-11-28T19:32:23.537Z,24.00
2018-11-28T19:34:53.494Z,20.80
2018-11-28T19:37:33.540Z,21.53
2018-11-28T19:40:03.525Z,21.20
2018-11-28T19:42:38.233Z,22.73
2018-11-28T19:45:08.034Z,20.20
2018-11-28T19:47:42.378Z,25.00
2018-11-28T19:50:29.905Z,20.43
2018-11-28T19:53:06.870Z,21.87
2018-11-28T19:55:49.407Z,19.93
2018-11-28T19:58:25.868Z,24.53
2018-11-28T20:00:59.493Z,21.30
2018-11-28T20:03:34.236Z,18.97
2018-11-28T20:06:04.689Z,19.80
2018-11-28T20:08:34.341Z,20.70
2018-11-28T20:11:03.971Z,17.40
2018-11-28T20:13:33.573Z,19.47
2018-11-28T20:16:02.908Z,18.33
2018-11-28T20:18:38.239Z,19.17
2018-11-28T20:21:08.189Z,20.57
2018-11-28T20:23:41.162Z,20.50
2018-11-28T20:26:10.120Z,17.57
2018-11-28T20:28:48.978Z,18.63
2018-11-28T20:31:17.944Z,20.27
2018-11-28T20:33:46.916Z,19.27
2018-11-28T20:39:11.746Z,17.87
2018-11-28T20:41:42.028Z,19.30
2018-11-28T20:44:12.856Z,17.57
2018-11-28T20:46:54.856Z,17.90
2018-11-28T20:49:23.873Z,18.17
2018-11-28T20:51:52.902Z,17.77
2018-11-28T20:54:21.932Z,16.97
2018-11-28T20:56:50.922Z,17.67
2018-11-28T20:59:27.083Z,17.00
2018-11-28T21:02:01.366Z,19.30
2018-11-28T21:04:32.418Z,18.13
2018-11-28T21:07:04.949Z,18.87
2018-11-28T21:09:39.096Z,18.20
2018-11-28T21:12:08.238Z,16.57
2018-11-28T21:14:37.175Z,16.90
2018-11-28T21:17:07.206Z,16.67
2018-11-28T21:19:36.208Z,18.40
2018-11-28T21:22:05.431Z,17.20
2018-11-28T21:24:51.235Z,17.07
2018-11-28T21:27:24.134Z,17.03
2018-11-28T21:30:15.969Z,17.60
2018-11-28T21:32:46.083Z,17.03
2018-11-28T21:35:18.706Z,18.57
2018-11-28T21:37:49.591Z,16.23
2018-11-28T21:40:32.845Z,16.97
2018-11-28T21:43:08.474Z,16.80
2018-11-28T21:45:59.812Z,16.17
2018-11-28T21:48:28.725Z,13.90
2018-11-28T21:51:01.520Z,14.63
2018-11-28T21:53:32.513Z,13.67
2018-11-28T21:56:02.502Z,14.47
2018-11-28T21:58:31.517Z,14.97
2018-11-28T22:01:00.501Z,15.83
2018-11-28T22:03:35.779Z,14.53
2018-11-28T22:06:05.997Z,15.33
2018-11-28T22:08:35.146Z,14.70
2018-11-28T22:11:20.620Z,14.30
2018-11-28T22:14:03.334Z,12.50
2018-11-28T22:16:44.863Z,13.47
2018-11-28T22:19:20.206Z,13.20
2018-11-28T22:21:57.074Z,14.17
2018-11-28T22:27:44.080Z,13.90
2018-11-28T22:30:25.694Z,15.77
2018-11-28T22:33:07.259Z,12.37
2018-11-28T22:35:54.812Z,14.93
2018-11-28T22:38:25.817Z,12.73
2018-11-28T22:41:05.386Z,13.03
2018-11-28T22:43:36.336Z,13.97
2018-11-28T22:46:12.788Z,14.30
2018-11-28T22:48:54.149Z,14.03
2018-11-28T22:51:26.767Z,12.47
2018-11-28T22:53:57.836Z,12.37
2018-11-28T22:56:26.830Z,11.90
2018-11-28T22:58:55.970Z,12.70
2018-11-28T23:01:42.396Z,11.83
2018-11-28T23:04:12.472Z,14.90
2018-11-28T23:06:47.216Z,12.90
2018-11-28T23:09:28.908Z,12.57
2018-11-28T23:11:59.046Z,12.87
2018-11-28T23:14:46.570Z,12.07
2018-11-28T23:17:22.808Z,12.13
2018-11-28T23:19:51.748Z,13.73
2018-11-28T23:22:28.592Z,12.07
2018-11-28T23:25:00.905Z,9.77
2018-11-28T23:27:42.496Z,12.83
2018-11-28T23:30:24.281Z,12.73
2018-11-28T23:32:55.603Z,13.50
2018-11-28T23:35:25.065Z,10.57
2018-11-28T23:37:55.146Z,10.77
2018-11-28T23:40:25.186Z,11.73
2018-11-28T23:43:08.063Z,11.83
2018-11-28T23:45:38.022Z,9.70
2018-11-28T23:48:11.818Z,12.70
2018-11-28T23:50:40.908Z,10.27
2018-11-28T23:53:09.820Z,11.07
2018-11-28T23:55:45.622Z,11.00
2018-11-28T23:58:15.679Z,11.10
